Fillmore, California
Current Conditions -  °F | °C
As of 7:55 AM on Wednesday 28 Jan 2015 (Local Time) from KCMA Reporting Station
Clear Clear  
Wind Chill: 60°   Ceiling: Unl
Heat Index: 60°   Visibility: 10mi
Dew Point: 50°   Wind: 8mph
Humidity: 69%   Direction: 40°NE
Pressure: 30.15"   Gusts: NA
Location:  34.4°N, 118.91°W
Report Text: KCMA 281555Z 04007KT 10SM CLR 16/10 A3015 RMK AO2 SLP219 T01560100
Loading
Personal Weather Stations






























Interactive Weather Map New forecast layout! Learn more

10-Day Weather Forecast

Advertisements
Track Severe Weather on mobile